createdAt,value
2023-03-17T00:00:02.495Z,51.0
2023-03-17T00:02:02.757Z,52.0
2023-03-17T00:04:02.531Z,52.0
2023-03-17T00:06:04.230Z,51.0
2023-03-17T00:08:11.202Z,51.0
2023-03-17T00:10:02.551Z,52.0
2023-03-17T00:12:03.359Z,52.0
2023-03-17T00:14:02.927Z,52.0
2023-03-17T00:16:05.403Z,54.0
2023-03-17T00:18:03.134Z,51.0
2023-03-17T00:20:03.691Z,53.0
2023-03-17T00:22:06.201Z,51.0
2023-03-17T00:24:03.194Z,52.0
2023-03-17T00:26:03.201Z,54.0
2023-03-17T00:28:05.293Z,53.0
2023-03-17T00:30:02.464Z,52.0
2023-03-17T00:32:03.481Z,51.0
2023-03-17T00:34:02.693Z,53.0
2023-03-17T00:36:02.842Z,53.0
2023-03-17T00:38:02.779Z,53.0
2023-03-17T00:40:02.772Z,54.0
2023-03-17T00:42:04.050Z,52.0
2023-03-17T00:44:03.169Z,53.0
2023-03-17T00:46:02.932Z,54.0
2023-03-17T00:48:03.724Z,54.0
2023-03-17T00:50:02.668Z,55.0
2023-03-17T00:52:02.628Z,58.0
2023-03-17T00:54:02.664Z,58.0
2023-03-17T00:56:03.446Z,55.0
2023-03-17T00:58:03.823Z,55.0
2023-03-17T01:00:04.051Z,57.0
2023-03-17T01:02:02.589Z,61.0
2023-03-17T01:04:03.889Z,61.0
2023-03-17T01:06:04.474Z,60.0
2023-03-17T01:08:03.410Z,61.0
2023-03-17T01:10:02.463Z,61.0
2023-03-17T01:12:03.189Z,63.0
2023-03-17T01:14:03.286Z,63.0
2023-03-17T01:16:03.924Z,64.0
2023-03-17T01:18:03.046Z,64.0
2023-03-17T01:20:03.575Z,65.0
2023-03-17T01:22:02.788Z,62.0
2023-03-17T01:24:02.634Z,63.0
2023-03-17T01:26:03.212Z,64.0
2023-03-17T01:28:03.166Z,62.0
2023-03-17T01:30:02.555Z,62.0
2023-03-17T01:32:04.266Z,62.0
2023-03-17T01:34:03.916Z,63.0
2023-03-17T01:36:02.822Z,63.0
2023-03-17T01:38:03.778Z,63.0
2023-03-17T01:40:02.488Z,64.0
2023-03-17T01:42:03.787Z,65.0
2023-03-17T01:44:03.318Z,64.0
2023-03-17T01:46:16.313Z,64.0
2023-03-17T01:48:02.987Z,64.0
2023-03-17T01:50:09.482Z,64.0
2023-03-17T01:52:08.914Z,64.0
2023-03-17T01:54:08.221Z,65.0
2023-03-17T01:56:04.614Z,66.0
2023-03-17T01:58:02.559Z,66.0
2023-03-17T02:00:08.839Z,65.0
2023-03-17T02:02:09.136Z,65.0
2023-03-17T02:04:04.003Z,65.0
2023-03-17T02:06:04.509Z,67.0
2023-03-17T02:08:09.755Z,68.0
2023-03-17T02:10:04.585Z,68.0
2023-03-17T02:12:05.047Z,66.0
2023-03-17T02:14:02.769Z,68.0
2023-03-17T02:16:03.477Z,66.0
2023-03-17T02:18:03.312Z,67.0
2023-03-17T02:20:14.746Z,67.0
2023-03-17T02:22:03.240Z,67.0
2023-03-17T02:24:07.605Z,68.0
2023-03-17T02:26:04.769Z,67.0
2023-03-17T02:28:09.367Z,68.0
2023-03-17T02:30:04.106Z,68.0
2023-03-17T02:32:05.095Z,68.0
2023-03-17T02:34:02.601Z,69.0
2023-03-17T02:36:03.064Z,67.0
2023-03-17T02:38:02.549Z,68.0
2023-03-17T02:40:05.156Z,68.0
2023-03-17T02:42:02.478Z,69.0
2023-03-17T02:44:03.429Z,68.0
2023-03-17T02:46:03.939Z,69.0
2023-03-17T02:48:03.603Z,71.0
2023-03-17T02:50:04.358Z,68.0
2023-03-17T02:52:02.469Z,71.0
2023-03-17T02:54:02.413Z,69.0
2023-03-17T02:56:02.839Z,69.0
2023-03-17T02:58:03.153Z,70.0
2023-03-17T03:00:04.537Z,70.0
2023-03-17T03:02:02.515Z,71.0
2023-03-17T03:04:03.575Z,71.0
2023-03-17T03:06:03.216Z,70.0
2023-03-17T03:08:02.785Z,71.0
2023-03-17T03:10:02.821Z,71.0
2023-03-17T03:12:03.610Z,72.0
2023-03-17T03:14:03.330Z,72.0
2023-03-17T03:16:04.169Z,72.0
2023-03-17T03:18:02.617Z,72.0
2023-03-17T03:20:03.734Z,73.0
2023-03-17T03:22:02.457Z,72.0
2023-03-17T03:24:02.903Z,73.0
2023-03-17T03:26:03.238Z,72.0
2023-03-17T03:28:03.075Z,73.0
2023-03-17T03:30:04.111Z,72.0
2023-03-17T03:32:02.679Z,72.0
2023-03-17T03:34:02.437Z,72.0
2023-03-17T03:36:03.087Z,72.0
2023-03-17T03:38:02.489Z,72.0
2023-03-17T03:40:03.548Z,72.0
2023-03-17T03:42:02.645Z,73.0
2023-03-17T03:44:02.815Z,73.0
2023-03-17T03:46:03.735Z,72.0
2023-03-17T03:48:02.929Z,73.0
2023-03-17T03:50:02.593Z,72.0
2023-03-17T03:52:02.407Z,73.0
2023-03-17T03:54:02.673Z,73.0
2023-03-17T03:56:03.078Z,73.0
2023-03-17T03:58:03.036Z,72.0
2023-03-17T04:00:04.688Z,73.0
2023-03-17T04:02:02.699Z,73.0
2023-03-17T04:04:03.254Z,73.0
2023-03-17T04:06:03.235Z,73.0
2023-03-17T04:08:02.676Z,73.0
2023-03-17T04:10:03.758Z,75.0
2023-03-17T04:12:02.671Z,74.0
2023-03-17T04:14:02.879Z,73.0
2023-03-17T04:16:03.430Z,75.0
2023-03-17T04:18:02.454Z,73.0
2023-03-17T04:20:02.762Z,73.0
2023-03-17T04:22:02.424Z,73.0
2023-03-17T04:24:03.909Z,74.0
2023-03-17T04:26:03.710Z,73.0
2023-03-17T04:28:03.259Z,72.0
2023-03-17T04:30:03.690Z,72.0
2023-03-17T04:32:02.993Z,73.0
2023-03-17T04:34:02.625Z,73.0
2023-03-17T04:36:03.725Z,73.0
2023-03-17T04:38:03.116Z,71.0
2023-03-17T04:40:03.714Z,70.0
2023-03-17T04:42:02.468Z,72.0
2023-03-17T04:44:03.995Z,71.0
2023-03-17T04:46:02.549Z,73.0
2023-03-17T04:48:03.651Z,71.0
2023-03-17T04:50:02.834Z,70.0
2023-03-17T04:52:03.110Z,70.0
2023-03-17T04:54:02.654Z,69.0
2023-03-17T04:56:02.632Z,71.0
2023-03-17T04:58:02.994Z,69.0
2023-03-17T05:00:03.096Z,67.0
2023-03-17T05:02:02.949Z,67.0
2023-03-17T05:04:03.407Z,67.0
2023-03-17T05:06:04.623Z,67.0
2023-03-17T05:08:03.312Z,66.0
2023-03-17T05:10:02.476Z,67.0
2023-03-17T05:12:02.862Z,67.0
2023-03-17T05:14:02.514Z,66.0
2023-03-17T05:16:03.179Z,65.0
2023-03-17T05:18:04.945Z,66.0
2023-03-17T05:20:04.061Z,67.0
2023-03-17T05:22:03.038Z,66.0
2023-03-17T05:24:02.635Z,67.0
2023-03-17T05:26:02.877Z,67.0
2023-03-17T05:28:03.400Z,67.0
2023-03-17T05:30:03.060Z,66.0
2023-03-17T05:32:03.861Z,65.0
2023-03-17T05:34:03.783Z,66.0
2023-03-17T05:36:03.174Z,66.0
2023-03-17T05:38:03.049Z,67.0
2023-03-17T05:40:02.799Z,66.0
2023-03-17T05:42:02.550Z,66.0
2023-03-17T05:44:03.171Z,65.0
2023-03-17T05:46:03.596Z,65.0
2023-03-17T05:48:03.032Z,65.0
2023-03-17T05:50:04.604Z,64.0
2023-03-17T05:52:02.773Z,63.0
2023-03-17T05:54:02.455Z,63.0
2023-03-17T05:56:03.049Z,62.0
2023-03-17T05:58:04.215Z,64.0
2023-03-17T06:00:05.042Z,61.0
2023-03-17T06:02:02.841Z,61.0
2023-03-17T06:04:03.956Z,62.0
2023-03-17T06:06:02.411Z,63.0
2023-03-17T06:08:04.812Z,63.0
2023-03-17T06:10:03.031Z,60.0
2023-03-17T06:12:03.540Z,61.0
2023-03-17T06:14:02.534Z,60.0
2023-03-17T06:16:03.135Z,60.0
2023-03-17T06:18:04.750Z,59.0
2023-03-17T06:20:04.100Z,58.0
2023-03-17T06:22:02.447Z,57.0
2023-03-17T06:24:03.088Z,59.0
2023-03-17T06:26:03.026Z,59.0
2023-03-17T06:28:05.055Z,61.0
2023-03-17T06:30:02.542Z,62.0
2023-03-17T06:32:18.954Z,64.0
2023-03-17T06:34:02.836Z,58.0
2023-03-17T06:36:03.012Z,58.0
2023-03-17T06:38:04.702Z,57.0
2023-03-17T06:40:05.123Z,58.0
2023-03-17T06:42:03.256Z,57.0
2023-03-17T06:44:04.960Z,57.0
2023-03-17T06:46:02.892Z,58.0
2023-03-17T06:48:03.302Z,56.0
2023-03-17T06:50:02.673Z,58.0
2023-03-17T06:52:02.680Z,56.0
2023-03-17T06:54:03.038Z,57.0
2023-03-17T06:56:04.634Z,56.0
2023-03-17T06:58:02.848Z,57.0
2023-03-17T07:00:05.940Z,59.0
2023-03-17T07:02:03.305Z,57.0
2023-03-17T07:04:02.476Z,56.0
2023-03-17T07:06:03.522Z,58.0
2023-03-17T07:08:02.645Z,56.0
2023-03-17T07:10:03.576Z,56.0
2023-03-17T07:12:04.659Z,56.0
2023-03-17T07:14:02.681Z,57.0
2023-03-17T07:16:03.118Z,57.0
2023-03-17T07:18:02.690Z,56.0
2023-03-17T07:20:02.692Z,56.0
2023-03-17T07:22:03.169Z,58.0
2023-03-17T07:24:04.116Z,55.0
2023-03-17T07:26:03.164Z,54.0
2023-03-17T07:28:03.035Z,55.0
2023-03-17T07:30:04.700Z,54.0
2023-03-17T07:32:06.065Z,55.0
2023-03-17T07:34:02.606Z,55.0
2023-03-17T07:36:02.779Z,54.0
2023-03-17T07:38:02.862Z,54.0
2023-03-17T07:40:02.463Z,53.0
2023-03-17T07:42:03.083Z,53.0
2023-03-17T07:44:03.769Z,53.0
2023-03-17T07:46:05.174Z,52.0
2023-03-17T07:48:03.136Z,52.0
2023-03-17T07:50:02.537Z,53.0
2023-03-17T07:52:03.065Z,51.0
2023-03-17T07:54:03.679Z,52.0
2023-03-17T07:56:03.408Z,51.0
2023-03-17T07:58:02.453Z,50.0
2023-03-17T08:00:04.015Z,51.0
2023-03-17T08:02:03.495Z,50.0
2023-03-17T08:04:02.601Z,50.0
2023-03-17T08:06:03.472Z,50.0
2023-03-17T08:08:02.714Z,50.0
2023-03-17T08:10:02.810Z,49.0
2023-03-17T08:12:03.470Z,50.0
2023-03-17T08:14:03.033Z,50.0
2023-03-17T08:16:02.430Z,50.0
2023-03-17T08:18:03.376Z,49.0
2023-03-17T08:20:04.433Z,50.0
2023-03-17T08:22:02.499Z,50.0
2023-03-17T08:24:04.085Z,51.0
2023-03-17T08:26:04.261Z,50.0
2023-03-17T08:28:04.117Z,50.0
2023-03-17T08:30:03.722Z,50.0
2023-03-17T08:32:03.691Z,50.0
2023-03-17T08:34:04.020Z,50.0
2023-03-17T08:36:06.560Z,50.0
2023-03-17T08:38:02.508Z,51.0
2023-03-17T08:40:02.466Z,51.0
2023-03-17T08:42:04.087Z,52.0
2023-03-17T08:44:03.941Z,52.0
2023-03-17T08:46:07.403Z,53.0
2023-03-17T08:48:03.839Z,52.0
2023-03-17T08:50:05.080Z,52.0
2023-03-17T08:52:03.663Z,52.0
2023-03-17T08:54:04.127Z,53.0
2023-03-17T08:56:04.299Z,54.0
2023-03-17T08:58:04.912Z,53.0
2023-03-17T09:00:10.487Z,54.0
2023-03-17T09:02:02.581Z,54.0
2023-03-17T09:04:03.058Z,56.0
2023-03-17T09:06:05.588Z,55.0
2023-03-17T09:08:03.254Z,57.0
2023-03-17T09:10:04.586Z,56.0
2023-03-17T09:12:05.283Z,55.0
2023-03-17T09:14:02.823Z,55.0
2023-03-17T09:16:02.497Z,55.0
2023-03-17T09:18:03.650Z,56.0
2023-03-17T09:20:03.400Z,56.0
2023-03-17T09:22:03.673Z,57.0
2023-03-17T09:24:02.861Z,56.0
2023-03-17T09:26:03.465Z,56.0
2023-03-17T09:28:03.930Z,58.0
2023-03-17T09:30:02.509Z,58.0
2023-03-17T09:32:02.665Z,58.0
2023-03-17T09:34:04.514Z,57.0
2023-03-17T09:36:02.631Z,59.0
2023-03-17T09:38:02.457Z,58.0
2023-03-17T09:40:03.437Z,58.0
2023-03-17T09:42:08.976Z,59.0
2023-03-17T09:44:12.271Z,58.0
2023-03-17T09:46:13.675Z,58.0
2023-03-17T09:48:12.589Z,58.0
2023-03-17T09:50:10.311Z,57.0
2023-03-17T09:52:03.422Z,56.0
2023-03-17T09:54:04.848Z,56.0
2023-03-17T09:56:08.191Z,57.0
2023-03-17T09:58:03.120Z,57.0
2023-03-17T10:00:06.845Z,57.0
2023-03-17T10:02:03.464Z,56.0
2023-03-17T10:04:03.706Z,57.0
2023-03-17T10:06:18.240Z,57.0
2023-03-17T10:08:26.962Z,57.0
2023-03-17T10:10:11.733Z,59.0
2023-03-17T10:12:10.325Z,57.0
2023-03-17T10:14:09.043Z,57.0
2023-03-17T10:16:09.353Z,58.0
2023-03-17T10:18:09.112Z,58.0
2023-03-17T10:20:10.992Z,60.0
2023-03-17T10:22:07.254Z,60.0
2023-03-17T10:24:05.452Z,60.0
2023-03-17T10:26:07.821Z,61.0
2023-03-17T10:28:09.115Z,60.0
2023-03-17T10:30:02.647Z,59.0
2023-03-17T10:32:03.784Z,61.0
2023-03-17T10:34:13.466Z,61.0
2023-03-17T10:36:09.106Z,61.0
2023-03-17T10:38:14.662Z,60.0
2023-03-17T10:40:09.802Z,60.0
2023-03-17T10:42:11.072Z,60.0
2023-03-17T10:44:08.800Z,60.0
2023-03-17T10:46:05.982Z,61.0
2023-03-17T10:48:04.113Z,61.0
2023-03-17T10:50:13.781Z,62.0
2023-03-17T10:52:07.495Z,59.0
2023-03-17T10:54:09.139Z,59.0
2023-03-17T10:56:09.957Z,63.0
2023-03-17T10:58:05.594Z,64.0
2023-03-17T11:00:06.652Z,68.0
2023-03-17T11:02:17.553Z,67.0
2023-03-17T11:04:06.058Z,67.0
2023-03-17T11:06:05.691Z,66.0
2023-03-17T11:08:10.510Z,68.0
2023-03-17T11:10:06.155Z,66.0
2023-03-17T11:12:05.070Z,65.0
2023-03-17T11:14:03.600Z,65.0
2023-03-17T11:16:11.152Z,68.0
2023-03-17T11:18:07.540Z,68.0
2023-03-17T11:20:15.946Z,65.0
2023-03-17T11:22:09.658Z,65.0
2023-03-17T11:24:10.982Z,65.0
2023-03-17T11:26:17.069Z,67.0
2023-03-17T11:28:16.430Z,69.0
2023-03-17T11:30:16.280Z,67.0
2023-03-17T11:32:13.077Z,69.0
2023-03-17T11:34:09.373Z,69.0
2023-03-17T11:36:15.284Z,67.0
2023-03-17T11:38:18.590Z,68.0
2023-03-17T11:40:14.350Z,68.0
2023-03-17T11:42:13.939Z,67.0
2023-03-17T11:44:19.146Z,67.0
2023-03-17T11:46:09.170Z,66.0
2023-03-17T11:48:13.667Z,67.0
2023-03-17T11:50:08.370Z,68.0
2023-03-17T11:52:11.810Z,69.0
2023-03-17T11:54:10.339Z,67.0
2023-03-17T11:56:07.521Z,68.0
2023-03-17T11:58:05.032Z,68.0
2023-03-17T12:00:12.328Z,69.0
2023-03-17T12:02:16.246Z,67.0
2023-03-17T12:04:11.312Z,66.0
2023-03-17T12:06:08.185Z,66.0
2023-03-17T12:08:09.278Z,68.0
2023-03-17T12:10:15.212Z,67.0
2023-03-17T12:12:04.855Z,67.0
2023-03-17T12:14:07.436Z,70.0
2023-03-17T12:16:10.646Z,68.0
2023-03-17T12:18:11.671Z,71.0
2023-03-17T12:20:12.362Z,70.0
2023-03-17T12:22:08.306Z,69.0
2023-03-17T12:24:07.202Z,69.0
2023-03-17T12:26:09.167Z,69.0
2023-03-17T12:28:11.766Z,71.0
2023-03-17T12:30:07.732Z,71.0
2023-03-17T12:32:08.070Z,70.0
2023-03-17T12:34:09.345Z,69.0
2023-03-17T12:36:05.604Z,70.0
2023-03-17T12:38:07.636Z,71.0
2023-03-17T12:40:09.633Z,69.0
2023-03-17T12:42:18.828Z,70.0
2023-03-17T12:44:07.763Z,68.0
2023-03-17T12:46:22.116Z,68.0
2023-03-17T12:48:14.872Z,70.0
2023-03-17T12:50:21.809Z,71.0
2023-03-17T12:52:16.770Z,72.0
2023-03-17T12:54:03.559Z,72.0
2023-03-17T12:56:11.405Z,71.0
2023-03-17T12:58:04.596Z,70.0
2023-03-17T13:00:15.495Z,68.0
2023-03-17T13:02:17.950Z,68.0
2023-03-17T13:04:16.289Z,69.0
2023-03-17T13:06:07.280Z,67.0
2023-03-17T13:08:07.951Z,68.0
2023-03-17T13:10:18.657Z,66.0
2023-03-17T13:12:04.744Z,66.0
2023-03-17T13:14:16.957Z,66.0
2023-03-17T13:16:05.233Z,65.0
2023-03-17T13:18:21.488Z,64.0
2023-03-17T13:20:15.741Z,64.0
2023-03-17T13:22:21.487Z,66.0
2023-03-17T13:24:21.382Z,64.0
2023-03-17T13:26:02.550Z,64.0
2023-03-17T13:28:18.177Z,65.0
2023-03-17T13:30:22.002Z,65.0
2023-03-17T13:32:21.496Z,66.0
2023-03-17T13:34:13.313Z,67.0
2023-03-17T13:36:22.291Z,65.0
2023-03-17T13:38:21.320Z,63.0
2023-03-17T13:40:13.978Z,64.0
2023-03-17T13:42:17.617Z,67.0
2023-03-17T13:44:15.086Z,66.0
2023-03-17T13:46:21.066Z,66.0
2023-03-17T13:48:21.493Z,64.0
2023-03-17T13:50:09.107Z,65.0
2023-03-17T13:52:11.469Z,68.0
2023-03-17T13:54:10.068Z,67.0
2023-03-17T13:56:12.138Z,68.0
2023-03-17T13:58:21.528Z,65.0
2023-03-17T14:00:14.892Z,65.0
2023-03-17T14:02:16.117Z,66.0
2023-03-17T14:04:05.700Z,64.0
2023-03-17T14:06:05.965Z,66.0
2023-03-17T14:08:06.165Z,64.0
2023-03-17T14:10:05.082Z,64.0
2023-03-17T14:12:12.217Z,66.0
2023-03-17T14:14:15.146Z,65.0
2023-03-17T14:16:11.857Z,66.0
2023-03-17T14:18:08.344Z,66.0
2023-03-17T14:20:08.026Z,66.0
2023-03-17T14:22:20.691Z,66.0
2023-03-17T14:24:13.224Z,66.0
2023-03-17T14:26:04.714Z,68.0
2023-03-17T14:28:08.679Z,65.0
2023-03-17T14:30:09.248Z,66.0
2023-03-17T14:32:06.565Z,67.0
2023-03-17T14:34:03.280Z,65.0
2023-03-17T14:36:04.751Z,65.0
2023-03-17T14:38:03.990Z,66.0
2023-03-17T14:40:02.437Z,66.0
2023-03-17T14:42:06.020Z,66.0
2023-03-17T14:44:03.317Z,67.0
2023-03-17T14:46:04.863Z,65.0
2023-03-17T14:48:02.616Z,68.0
2023-03-17T14:50:02.763Z,66.0
2023-03-17T14:52:02.540Z,65.0
2023-03-17T14:54:05.616Z,66.0
2023-03-17T14:56:04.081Z,67.0
2023-03-17T14:58:09.297Z,66.0
2023-03-17T15:00:14.323Z,67.0
2023-03-17T15:02:13.923Z,68.0
2023-03-17T15:04:11.822Z,67.0
2023-03-17T15:06:17.435Z,67.0
2023-03-17T15:08:06.674Z,68.0
2023-03-17T15:10:04.752Z,65.0
2023-03-17T15:12:06.441Z,66.0
2023-03-17T15:14:15.600Z,65.0
2023-03-17T15:16:07.158Z,65.0
2023-03-17T15:18:10.452Z,65.0
2023-03-17T15:20:07.354Z,65.0
2023-03-17T15:22:15.233Z,64.0
2023-03-17T15:24:17.143Z,64.0
2023-03-17T15:26:07.065Z,64.0
2023-03-17T15:28:03.024Z,63.0
2023-03-17T15:30:03.361Z,64.0
2023-03-17T15:32:12.302Z,66.0
2023-03-17T15:34:02.494Z,65.0
2023-03-17T15:36:04.270Z,64.0
2023-03-17T15:38:02.872Z,63.0
2023-03-17T15:40:05.133Z,64.0
2023-03-17T15:42:02.616Z,65.0
2023-03-17T15:44:04.179Z,64.0
2023-03-17T15:46:06.458Z,64.0
2023-03-17T15:48:03.005Z,63.0
2023-03-17T15:50:14.589Z,63.0
2023-03-17T15:52:02.469Z,63.0
2023-03-17T15:54:02.629Z,63.0
2023-03-17T15:56:03.472Z,64.0
2023-03-17T15:58:02.704Z,63.0
2023-03-17T16:00:02.503Z,63.0
2023-03-17T16:02:03.523Z,63.0
2023-03-17T16:04:02.481Z,63.0
2023-03-17T16:06:07.716Z,62.0
2023-03-17T16:08:03.449Z,63.0
2023-03-17T16:10:02.515Z,62.0
2023-03-17T16:12:02.523Z,62.0
2023-03-17T16:14:02.696Z,61.0
2023-03-17T16:16:05.220Z,62.0
2023-03-17T16:18:07.033Z,62.0
2023-03-17T16:20:05.453Z,60.0
2023-03-17T16:22:02.421Z,60.0
2023-03-17T16:24:03.118Z,59.0
2023-03-17T16:26:14.283Z,59.0
2023-03-17T16:28:12.636Z,58.0
2023-03-17T16:30:04.037Z,58.0
2023-03-17T16:32:02.512Z,61.0
2023-03-17T16:34:02.430Z,58.0
2023-03-17T16:36:03.143Z,57.0
2023-03-17T16:38:02.462Z,53.0
2023-03-17T16:40:02.730Z,55.0
2023-03-17T16:42:02.738Z,56.0
2023-03-17T16:44:05.055Z,55.0
2023-03-17T16:46:04.546Z,54.0
2023-03-17T16:48:04.062Z,54.0
2023-03-17T16:50:02.793Z,52.0
2023-03-17T16:52:02.638Z,55.0
2023-03-17T16:54:02.662Z,55.0
2023-03-17T16:56:03.178Z,55.0
2023-03-17T16:58:07.965Z,52.0
2023-03-17T17:00:02.577Z,50.0
2023-03-17T17:02:03.355Z,49.0
2023-03-17T17:04:03.268Z,48.0
2023-03-17T17:06:02.673Z,49.0
2023-03-17T17:08:02.566Z,48.0
2023-03-17T17:10:02.596Z,44.0
2023-03-17T17:12:02.656Z,44.0
2023-03-17T17:14:03.381Z,48.0
2023-03-17T17:16:02.765Z,43.0
2023-03-17T17:18:06.478Z,42.0
2023-03-17T17:20:04.278Z,42.0
2023-03-17T17:22:02.456Z,47.0
2023-03-17T17:24:02.442Z,45.0
2023-03-17T17:26:03.259Z,43.0
2023-03-17T17:28:02.512Z,45.0
2023-03-17T17:30:03.215Z,45.0
2023-03-17T17:32:02.630Z,45.0
2023-03-17T17:34:02.461Z,43.0
2023-03-17T17:36:04.895Z,42.0
2023-03-17T17:38:02.868Z,44.0
2023-03-17T17:40:04.079Z,42.0
2023-03-17T17:42:02.836Z,42.0
2023-03-17T17:44:02.779Z,41.0
2023-03-17T17:46:02.463Z,41.0
2023-03-17T17:48:02.744Z,41.0
2023-03-17T17:50:02.638Z,39.0
2023-03-17T17:52:02.646Z,42.0
2023-03-17T17:54:02.647Z,42.0
2023-03-17T17:56:04.327Z,44.0
2023-03-17T17:58:02.493Z,44.0
2023-03-17T18:00:05.971Z,42.0
2023-03-17T18:02:03.095Z,44.0
2023-03-17T18:04:02.428Z,41.0
2023-03-17T18:06:02.994Z,43.0
2023-03-17T18:08:04.494Z,41.0
2023-03-17T18:10:02.529Z,41.0
2023-03-17T18:12:03.310Z,41.0
2023-03-17T18:14:02.467Z,37.0
2023-03-17T18:16:03.611Z,41.0
2023-03-17T18:18:02.619Z,38.0
2023-03-17T18:20:03.099Z,40.0
2023-03-17T18:22:03.388Z,38.0
2023-03-17T18:24:04.411Z,38.0
2023-03-17T18:26:05.604Z,38.0
2023-03-17T18:28:02.945Z,36.0
2023-03-17T18:30:04.052Z,36.0
2023-03-17T18:32:02.759Z,35.0
2023-03-17T18:34:07.148Z,33.0
2023-03-17T18:36:05.559Z,33.0
2023-03-17T18:38:03.542Z,34.0
2023-03-17T18:40:14.407Z,37.0
2023-03-17T18:42:03.447Z,34.0
2023-03-17T18:44:02.742Z,35.0
2023-03-17T18:46:02.803Z,31.0
2023-03-17T18:48:02.469Z,31.0
2023-03-17T18:50:03.155Z,35.0
2023-03-17T18:52:03.102Z,34.0
2023-03-17T18:54:04.386Z,34.0
2023-03-17T18:56:03.998Z,32.0
2023-03-17T18:58:02.454Z,34.0
2023-03-17T19:00:02.462Z,33.0
2023-03-17T19:02:02.601Z,33.0
2023-03-17T19:04:04.316Z,32.0
2023-03-17T19:06:10.836Z,31.0
2023-03-17T19:08:03.555Z,32.0
2023-03-17T19:10:04.078Z,34.0
2023-03-17T19:12:02.439Z,34.0
2023-03-17T19:14:03.218Z,32.0
2023-03-17T19:16:04.021Z,31.0
2023-03-17T19:18:02.904Z,31.0
2023-03-17T19:20:03.379Z,35.0
2023-03-17T19:22:03.679Z,31.0
2023-03-17T19:24:04.552Z,31.0
2023-03-17T19:26:04.319Z,31.0
2023-03-17T19:28:04.115Z,33.0
2023-03-17T19:30:02.680Z,30.0
2023-03-17T19:32:03.495Z,32.0
2023-03-17T19:34:02.496Z,30.0
2023-03-17T19:36:08.606Z,30.0
2023-03-17T19:38:03.799Z,33.0
2023-03-17T19:40:04.370Z,32.0
2023-03-17T19:42:03.234Z,31.0
2023-03-17T19:44:06.201Z,30.0
2023-03-17T19:46:02.551Z,33.0
2023-03-17T19:48:02.584Z,33.0
2023-03-17T19:50:02.535Z,36.0
2023-03-17T19:52:03.851Z,29.0
2023-03-17T19:54:05.022Z,35.0
2023-03-17T19:56:04.317Z,32.0
2023-03-17T19:58:05.284Z,32.0
2023-03-17T20:00:02.500Z,34.0
2023-03-17T20:02:02.473Z,29.0
2023-03-17T20:04:02.716Z,34.0
2023-03-17T20:06:05.780Z,35.0
2023-03-17T20:08:02.649Z,30.0
2023-03-17T20:10:03.719Z,29.0
2023-03-17T20:12:02.440Z,30.0
2023-03-17T20:14:03.917Z,29.0
2023-03-17T20:16:03.550Z,29.0
2023-03-17T20:18:03.559Z,29.0
2023-03-17T20:20:03.438Z,28.0
2023-03-17T20:22:02.519Z,29.0
2023-03-17T20:24:03.126Z,30.0
2023-03-17T20:26:03.344Z,30.0
2023-03-17T20:28:03.818Z,31.0
2023-03-17T20:30:03.037Z,34.0
2023-03-17T20:32:02.656Z,30.0
2023-03-17T20:34:02.450Z,31.0
2023-03-17T20:36:04.189Z,28.0
2023-03-17T20:38:03.212Z,29.0
2023-03-17T20:40:04.868Z,30.0
2023-03-17T20:42:06.367Z,28.0
2023-03-17T20:44:02.656Z,29.0
2023-03-17T20:46:05.499Z,30.0
2023-03-17T20:48:04.535Z,29.0
2023-03-17T20:50:02.787Z,30.0
2023-03-17T20:52:05.573Z,30.0
2023-03-17T20:54:04.122Z,30.0
2023-03-17T20:56:02.721Z,31.0
2023-03-17T20:58:03.541Z,31.0
2023-03-17T21:00:02.629Z,30.0
2023-03-17T21:02:04.489Z,33.0
2023-03-17T21:04:05.415Z,33.0
2023-03-17T21:06:03.263Z,28.0
2023-03-17T21:08:05.018Z,30.0
2023-03-17T21:10:03.077Z,29.0
2023-03-17T21:12:02.439Z,30.0
2023-03-17T21:14:03.973Z,28.0
2023-03-17T21:16:03.284Z,30.0
2023-03-17T21:18:02.784Z,31.0
2023-03-17T21:20:03.621Z,28.0
2023-03-17T21:22:03.343Z,30.0
2023-03-17T21:24:02.416Z,29.0
2023-03-17T21:26:03.552Z,27.0
2023-03-17T21:28:04.693Z,28.0
2023-03-17T21:30:04.004Z,29.0
2023-03-17T21:32:04.039Z,29.0
2023-03-17T21:34:02.470Z,31.0
2023-03-17T21:36:03.044Z,29.0
2023-03-17T21:38:02.806Z,28.0
2023-03-17T21:40:04.276Z,31.0
2023-03-17T21:42:03.542Z,31.0
2023-03-17T21:44:04.425Z,29.0
2023-03-17T21:46:03.064Z,29.0
2023-03-17T21:48:02.690Z,29.0
2023-03-17T21:50:03.484Z,26.0
2023-03-17T21:52:04.145Z,28.0
2023-03-17T21:54:03.435Z,26.0
2023-03-17T21:56:03.613Z,26.0
2023-03-17T21:58:03.532Z,26.0
2023-03-17T22:00:02.598Z,27.0
2023-03-17T22:02:04.418Z,25.0
2023-03-17T22:04:02.434Z,27.0
2023-03-17T22:06:05.110Z,26.0
2023-03-17T22:08:02.825Z,26.0
2023-03-17T22:10:06.596Z,26.0
2023-03-17T22:12:03.849Z,29.0
2023-03-17T22:14:02.771Z,26.0
2023-03-17T22:16:04.698Z,25.0
2023-03-17T22:18:02.764Z,25.0
2023-03-17T22:20:06.741Z,26.0
2023-03-17T22:22:03.563Z,24.0
2023-03-17T22:24:02.485Z,25.0
2023-03-17T22:26:02.805Z,25.0
2023-03-17T22:28:03.024Z,25.0
2023-03-17T22:30:02.722Z,25.0
2023-03-17T22:32:02.933Z,26.0
2023-03-17T22:34:03.840Z,29.0
2023-03-17T22:36:02.921Z,27.0
2023-03-17T22:38:02.742Z,26.0
2023-03-17T22:40:05.900Z,28.0
2023-03-17T22:42:03.400Z,25.0
2023-03-17T22:44:03.645Z,26.0
2023-03-17T22:46:03.287Z,25.0
2023-03-17T22:48:02.456Z,26.0
2023-03-17T22:50:02.723Z,25.0
2023-03-17T22:52:02.562Z,27.0
2023-03-17T22:54:03.807Z,26.0
2023-03-17T22:56:03.735Z,26.0
2023-03-17T22:58:02.476Z,26.0
2023-03-17T23:00:08.121Z,26.0
2023-03-17T23:02:02.577Z,25.0
2023-03-17T23:04:02.605Z,25.0
2023-03-17T23:06:04.401Z,26.0
2023-03-17T23:08:04.809Z,26.0
2023-03-17T23:10:04.119Z,27.0
2023-03-17T23:12:03.487Z,25.0
2023-03-17T23:14:04.048Z,26.0
2023-03-17T23:16:04.191Z,27.0
2023-03-17T23:18:03.345Z,28.0
2023-03-17T23:20:05.127Z,30.0
2023-03-17T23:22:03.077Z,29.0
2023-03-17T23:24:04.169Z,29.0
2023-03-17T23:26:03.176Z,26.0
2023-03-17T23:28:03.548Z,25.0
2023-03-17T23:30:03.299Z,25.0
2023-03-17T23:32:03.575Z,26.0
2023-03-17T23:34:03.313Z,26.0
2023-03-17T23:36:03.427Z,26.0
2023-03-17T23:38:03.717Z,29.0
2023-03-17T23:40:02.514Z,27.0
2023-03-17T23:42:03.690Z,26.0
2023-03-17T23:44:03.803Z,25.0
2023-03-17T23:46:04.780Z,27.0
2023-03-17T23:48:03.953Z,27.0
2023-03-17T23:50:03.153Z,27.0
2023-03-17T23:52:04.258Z,29.0
2023-03-17T23:54:03.678Z,27.0
2023-03-17T23:56:03.536Z,29.0
2023-03-17T23:58:03.382Z,26.0
